Time;durP1;ratioP1;P1;durP2;ratioP2;P2;SDS_P1;SDS_P2;PMS_P1;PMS_P2;Temp;Humidity;BMP_temperature;BMP_pressure;BME280_temperature;BME280_humidity;BME280_pressure;Samples;Min_cycle;Max_cycle;Signal;HPM_P1;HPM_P2
2023/05/08 00:00:29;;;;;;;12.27;11.07;;;16.20;99.90;;;;;;5004749;28;20204;-62
2023/05/08 00:02:56;;;;;;;13.53;12.13;;;16.10;99.90;;;;;;4979195;28;20242;-62
2023/05/08 00:05:23;;;;;;;13.50;12.13;;;16.10;99.90;;;;;;4998954;28;20234;-62
2023/05/08 00:07:52;;;;;;;13.50;12.20;;;16.10;99.90;;;;;;4992462;28;20206;-62
2023/05/08 00:10:19;;;;;;;14.10;12.10;;;16.10;99.90;;;;;;5002718;28;20200;-62
2023/05/08 00:12:45;;;;;;;14.77;12.50;;;16.10;99.90;;;;;;5002740;28;20203;-62
2023/05/08 00:15:12;;;;;;;18.50;12.57;;;16.10;99.90;;;;;;5008682;28;20681;-62
2023/05/08 00:17:39;;;;;;;15.93;13.30;;;16.00;99.90;;;;;;5008356;28;20202;-63
2023/05/08 00:20:07;;;;;;;13.63;12.13;;;16.10;99.90;;;;;;5004641;28;20203;-62
2023/05/08 00:22:34;;;;;;;14.27;12.27;;;16.10;99.90;;;;;;5001488;28;20608;-62
2023/05/08 00:25:03;;;;;;;13.97;12.67;;;16.10;99.90;;;;;;5004947;28;20623;-62
2023/05/08 00:27:30;;;;;;;13.60;12.20;;;16.10;99.90;;;;;;5005181;28;20247;-62
2023/05/08 00:29:57;;;;;;;14.53;12.80;;;16.10;99.90;;;;;;5005445;28;20353;-62
2023/05/08 00:32:24;;;;;;;14.87;13.03;;;16.00;99.90;;;;;;5004699;28;20655;-62
2023/05/08 00:34:51;;;;;;;15.53;13.30;;;16.00;99.90;;;;;;5005819;28;20220;-62
2023/05/08 00:37:18;;;;;;;13.97;12.47;;;15.90;99.90;;;;;;4984533;28;20710;-62
2023/05/08 00:39:45;;;;;;;14.73;13.23;;;15.90;99.90;;;;;;4998256;28;20728;-62
2023/05/08 00:42:12;;;;;;;16.37;13.73;;;15.80;99.90;;;;;;5004316;28;20216;-62
2023/05/08 00:44:40;;;;;;;14.33;12.83;;;15.80;99.90;;;;;;4996857;28;20220;-62
2023/05/08 00:47:07;;;;;;;15.67;13.40;;;15.80;99.90;;;;;;4995383;28;22120;-62
2023/05/08 00:49:35;;;;;;;15.50;13.83;;;15.80;99.90;;;;;;5001293;28;20296;-62
2023/05/08 00:52:07;;;;;;;16.37;14.67;;;15.80;99.90;;;;;;5002707;28;20212;-62
2023/05/08 00:54:37;;;;;;;15.63;13.83;;;15.80;99.90;;;;;;4999583;28;20251;-62
2023/05/08 00:57:08;;;;;;;14.77;12.53;;;15.80;99.90;;;;;;4988998;28;20260;-62
2023/05/08 00:59:36;;;;;;;15.40;13.50;;;15.70;99.90;;;;;;5004157;28;20244;-64
2023/05/08 01:02:03;;;;;;;14.37;12.37;;;15.60;99.90;;;;;;5002726;28;20660;-65
2023/05/08 01:04:32;;;;;;;14.73;13.23;;;15.60;99.90;;;;;;4981091;28;20565;-62
2023/05/08 01:07:02;;;;;;;14.27;12.50;;;15.60;99.90;;;;;;5000976;28;20243;-62
2023/05/08 01:09:29;;;;;;;14.43;13.00;;;15.60;99.90;;;;;;4992332;28;20202;-65
2023/05/08 01:12:14;;;;;;;15.87;13.77;;;15.50;99.90;;;;;;5005333;28;20670;-63
2023/05/08 01:14:54;;;;;;;16.87;13.30;;;15.40;99.90;;;;;;5005142;28;20203;-63
2023/05/08 01:17:37;;;;;;;14.03;12.53;;;15.30;99.90;;;;;;5005167;28;20216;-62
2023/05/08 01:20:28;;;;;;;13.13;11.80;;;15.40;99.90;;;;;;5003211;28;20303;-62
2023/05/08 01:23:16;;;;;;;14.47;12.83;;;15.40;99.90;;;;;;4999044;28;20311;-62
2023/05/08 01:26:03;;;;;;;15.73;12.33;;;15.40;99.90;;;;;;5000885;28;20224;-63
2023/05/08 01:29:15;;;;;;;13.97;12.47;;;15.40;99.90;;;;;;5008430;28;20264;-62
2023/05/08 01:32:08;;;;;;;14.50;12.30;;;15.30;99.90;;;;;;5001817;28;20775;-63
2023/05/08 01:34:45;;;;;;;14.93;12.93;;;15.30;99.90;;;;;;5002829;28;20705;-62
2023/05/08 01:37:15;;;;;;;14.17;12.33;;;15.40;99.90;;;;;;5018330;28;20292;-62
2023/05/08 01:39:57;;;;;;;13.90;12.40;;;15.40;99.90;;;;;;4995792;28;20652;-62
2023/05/08 01:42:48;;;;;;;13.43;12.00;;;15.50;99.90;;;;;;4999105;28;20685;-62
2023/05/08 01:45:30;;;;;;;13.63;12.23;;;15.30;99.90;;;;;;4999288;28;20385;-63
2023/05/08 01:48:07;;;;;;;13.00;11.60;;;15.30;99.90;;;;;;5005842;28;20551;-62
2023/05/08 01:50:44;;;;;;;14.17;11.33;;;15.30;99.90;;;;;;4997425;28;20205;-63
2023/05/08 01:53:35;;;;;;;16.63;13.30;;;15.40;99.90;;;;;;5002829;28;20197;-62
2023/05/08 01:56:10;;;;;;;13.67;12.27;;;15.40;99.90;;;;;;5001453;28;20261;-62
2023/05/08 01:58:38;;;;;;;15.93;12.87;;;15.20;99.90;;;;;;5000466;28;20210;-62
2023/05/08 02:01:06;;;;;;;14.87;13.23;;;15.20;99.90;;;;;;4966664;28;20216;-62
2023/05/08 02:03:35;;;;;;;16.93;13.23;;;15.30;99.90;;;;;;5001102;28;20231;-62
2023/05/08 02:06:04;;;;;;;15.70;14.00;;;15.40;99.90;;;;;;5003006;28;20243;-63
2023/05/08 02:08:32;;;;;;;16.90;14.40;;;15.40;99.90;;;;;;4998279;28;20299;-62
2023/05/08 02:11:00;;;;;;;17.47;14.50;;;15.30;99.90;;;;;;5001157;28;20281;-62
2023/05/08 02:13:29;;;;;;;17.93;14.53;;;15.40;99.90;;;;;;5000334;28;20206;-62
2023/05/08 02:15:57;;;;;;;15.90;14.20;;;15.30;99.90;;;;;;4996444;28;20228;-62
2023/05/08 02:18:24;;;;;;;18.83;14.97;;;15.40;99.90;;;;;;5001588;28;20201;-63
2023/05/08 02:20:53;;;;;;;17.87;15.10;;;15.40;99.90;;;;;;5002661;28;20302;-62
2023/05/08 02:23:23;;;;;;;19.93;15.27;;;15.40;99.90;;;;;;5002786;28;20520;-63
2023/05/08 02:25:52;;;;;;;19.50;16.20;;;15.40;99.90;;;;;;4999114;28;20300;-63
2023/05/08 02:28:20;;;;;;;19.10;15.47;;;15.40;99.90;;;;;;5006497;28;20276;-63
2023/05/08 02:30:49;;;;;;;19.57;15.90;;;15.50;99.90;;;;;;5000860;28;20197;-62
2023/05/08 02:33:17;;;;;;;20.47;15.67;;;15.50;99.90;;;;;;5002821;28;20368;-62
2023/05/08 02:35:45;;;;;;;18.23;15.50;;;15.40;99.90;;;;;;5000817;28;20239;-62
2023/05/08 02:38:14;;;;;;;19.17;15.17;;;15.50;99.90;;;;;;4999937;28;20471;-62
2023/05/08 02:40:46;;;;;;;16.90;14.73;;;15.50;99.90;;;;;;4998874;28;20339;-62
2023/05/08 02:43:13;;;;;;;18.70;14.93;;;15.50;99.90;;;;;;5002357;28;20725;-62
2023/05/08 02:45:53;;;;;;;21.20;15.57;;;15.50;99.90;;;;;;5002144;28;20764;-63
2023/05/08 02:48:29;;;;;;;19.23;15.47;;;15.50;99.90;;;;;;5001296;28;20644;-63
2023/05/08 02:51:03;;;;;;;20.87;16.70;;;15.50;99.90;;;;;;5003297;28;20208;-62
2023/05/08 02:53:51;;;;;;;16.93;14.97;;;15.50;99.90;;;;;;4996910;28;20212;-62
2023/05/08 02:56:42;;;;;;;18.33;14.97;;;15.50;99.90;;;;;;5000557;28;20203;-62
2023/05/08 02:59:17;;;;;;;17.43;15.30;;;15.50;99.90;;;;;;4999456;28;20208;-62
2023/05/08 03:02:04;;;;;;;16.30;14.43;;;15.50;99.90;;;;;;5003167;28;20655;-62
2023/05/08 03:04:40;;;;;;;19.90;15.03;;;15.40;99.90;;;;;;5011719;28;20338;-62
2023/05/08 03:07:07;;;;;;;18.60;15.23;;;15.40;99.90;;;;;;5001296;28;20204;-63
2023/05/08 03:09:49;;;;;;;18.40;14.83;;;15.50;99.90;;;;;;4992077;28;20304;-62
2023/05/08 03:12:25;;;;;;;19.00;16.23;;;15.40;99.90;;;;;;4998918;28;20213;-62
2023/05/08 03:15:01;;;;;;;17.23;15.13;;;15.40;99.90;;;;;;4995019;28;20202;-62
2023/05/08 03:17:31;;;;;;;18.87;15.27;;;15.30;99.90;;;;;;4999373;28;20206;-63
2023/05/08 03:20:02;;;;;;;17.43;15.47;;;15.30;99.90;;;;;;4997808;28;20671;-62
2023/05/08 03:22:31;;;;;;;16.97;14.77;;;15.20;99.90;;;;;;5002948;28;20657;-63
2023/05/08 03:25:00;;;;;;;17.23;15.37;;;15.30;99.90;;;;;;4992704;28;20225;-66
2023/05/08 03:27:29;;;;;;;18.47;14.67;;;15.40;99.90;;;;;;4995556;28;20260;-62
2023/05/08 03:29:58;;;;;;;18.13;14.93;;;15.40;99.90;;;;;;4996100;28;20684;-62
2023/05/08 03:32:27;;;;;;;19.50;14.33;;;15.40;99.90;;;;;;4998833;28;20230;-63
2023/05/08 03:34:57;;;;;;;18.90;14.93;;;15.40;99.90;;;;;;5001242;28;20224;-63
2023/05/08 03:37:26;;;;;;;18.70;15.40;;;15.40;99.90;;;;;;4996788;28;20242;-62
2023/05/08 03:39:54;;;;;;;18.17;15.37;;;15.30;99.90;;;;;;5004169;28;20212;-62
2023/05/08 03:42:23;;;;;;;18.27;15.87;;;15.40;99.90;;;;;;5000828;28;20217;-62
2023/05/08 03:44:51;;;;;;;18.27;15.77;;;15.30;99.90;;;;;;5002718;28;20218;-62
2023/05/08 03:47:19;;;;;;;18.10;15.13;;;15.30;99.90;;;;;;4999935;28;20557;-63
2023/05/08 03:49:48;;;;;;;18.50;15.47;;;15.30;99.90;;;;;;5001275;28;20614;-62
2023/05/08 03:52:15;;;;;;;17.67;15.70;;;15.20;99.90;;;;;;5000307;28;20209;-63
2023/05/08 03:54:42;;;;;;;20.07;15.87;;;15.20;99.90;;;;;;5004289;28;20195;-62
2023/05/08 03:57:09;;;;;;;20.47;15.90;;;15.20;99.90;;;;;;5002835;28;20195;-62
2023/05/08 03:59:51;;;;;;;19.73;16.10;;;15.20;99.90;;;;;;5004808;28;20227;-62
2023/05/08 04:02:36;;;;;;;17.10;15.27;;;15.20;99.90;;;;;;5004886;28;20206;-62
2023/05/08 04:05:42;;;;;;;18.07;15.27;;;15.20;99.90;;;;;;5004606;28;20688;-62
2023/05/08 04:08:16;;;;;;;18.80;15.97;;;15.10;99.90;;;;;;5005716;28;20200;-62
2023/05/08 04:10:58;;;;;;;20.07;15.73;;;15.20;99.90;;;;;;5003348;28;20585;-62
2023/05/08 04:13:29;;;;;;;17.93;16.03;;;15.20;99.90;;;;;;5003692;28;20217;-62
2023/05/08 04:16:16;;;;;;;17.50;15.60;;;15.10;99.90;;;;;;5004961;28;20206;-63
2023/05/08 04:18:48;;;;;;;18.23;15.50;;;15.10;99.90;;;;;;5002364;28;20232;-63
2023/05/08 04:21:22;;;;;;;17.57;14.77;;;15.10;99.90;;;;;;5000812;28;20304;-63
2023/05/08 04:23:50;;;;;;;17.90;14.97;;;15.10;99.90;;;;;;5003853;28;20769;-63
2023/05/08 04:26:17;;;;;;;21.27;15.50;;;15.00;99.90;;;;;;5001088;28;20277;-63
2023/05/08 04:28:47;;;;;;;16.43;14.27;;;14.90;99.90;;;;;;4999902;28;20214;-63
2023/05/08 04:31:16;;;;;;;16.70;13.80;;;14.80;99.90;;;;;;4997612;28;20249;-63
2023/05/08 04:33:46;;;;;;;15.40;13.63;;;14.90;99.90;;;;;;4983661;28;20222;-63
2023/05/08 04:36:13;;;;;;;15.50;11.43;;;15.00;99.90;;;;;;4995549;28;20320;-63
2023/05/08 04:38:40;;;;;;;12.20;10.87;;;15.10;99.90;;;;;;5016165;28;20331;-63
2023/05/08 04:41:07;;;;;;;12.03;10.77;;;15.20;99.90;;;;;;5000382;28;20199;-63
2023/05/08 04:43:35;;;;;;;12.40;11.10;;;15.00;99.90;;;;;;5001524;28;20232;-63
2023/05/08 04:46:04;;;;;;;11.37;9.10;;;15.10;99.90;;;;;;5002664;28;20248;-63
2023/05/08 04:48:32;;;;;;;11.50;9.47;;;14.90;99.90;;;;;;5003338;28;20207;-65
2023/05/08 04:50:59;;;;;;;9.43;8.13;;;14.70;99.90;;;;;;4997546;28;20561;-62
2023/05/08 04:53:26;;;;;;;9.07;8.17;;;14.40;99.90;;;;;;5011061;28;20678;-63
2023/05/08 04:55:53;;;;;;;8.17;7.37;;;14.60;99.90;;;;;;5002653;28;20239;-63
2023/05/08 04:58:20;;;;;;;8.57;7.77;;;14.60;99.90;;;;;;5004899;28;20202;-63
2023/05/08 05:00:47;;;;;;;8.63;7.83;;;14.40;99.90;;;;;;5018580;28;20208;-63
2023/05/08 05:03:14;;;;;;;9.17;8.27;;;14.40;99.90;;;;;;5012605;28;20237;-63
2023/05/08 05:05:41;;;;;;;8.77;7.93;;;14.30;99.90;;;;;;4999976;28;20241;-63
2023/05/08 05:08:08;;;;;;;7.90;7.20;;;14.30;99.90;;;;;;5000590;28;20197;-63
2023/05/08 05:10:37;;;;;;;11.27;7.70;;;14.30;99.90;;;;;;5005669;28;20205;-63
2023/05/08 05:13:04;;;;;;;9.20;8.30;;;14.30;99.90;;;;;;5021199;28;20209;-64
2023/05/08 05:15:31;;;;;;;8.97;8.07;;;14.50;99.90;;;;;;5002383;28;20202;-63
2023/05/08 05:17:58;;;;;;;9.67;8.70;;;14.50;99.90;;;;;;5008294;28;20608;-63
2023/05/08 05:20:25;;;;;;;10.50;9.50;;;14.50;99.90;;;;;;4985024;28;20641;-64
2023/05/08 05:22:52;;;;;;;9.53;8.57;;;14.70;99.90;;;;;;5001185;28;21675;-63
2023/05/08 05:25:19;;;;;;;10.40;9.10;;;14.70;99.90;;;;;;5005714;28;20373;-63
2023/05/08 05:27:46;;;;;;;10.67;9.13;;;14.80;99.90;;;;;;5002835;28;20229;-63
2023/05/08 05:30:13;;;;;;;11.47;9.43;;;14.70;99.90;;;;;;5004015;28;20691;-63
2023/05/08 05:32:40;;;;;;;10.27;9.27;;;14.70;99.90;;;;;;5003558;28;20658;-63
2023/05/08 05:35:08;;;;;;;10.20;9.13;;;14.80;99.90;;;;;;4997015;28;20207;-64
2023/05/08 05:37:35;;;;;;;11.40;10.20;;;14.80;99.90;;;;;;4996638;28;20230;-63
2023/05/08 05:40:04;;;;;;;11.60;10.40;;;14.80;99.90;;;;;;4712638;28;10000740;-63
2023/05/08 05:42:31;;;;;;;11.87;10.57;;;15.00;99.90;;;;;;4981091;28;20465;-63
2023/05/08 05:44:58;;;;;;;12.10;10.80;;;15.20;99.90;;;;;;4983526;28;20208;-64
2023/05/08 05:47:25;;;;;;;12.17;10.87;;;15.20;99.90;;;;;;4984196;28;20863;-63
2023/05/08 05:49:52;;;;;;;13.03;10.93;;;15.20;99.90;;;;;;4987590;28;20220;-64
2023/05/08 05:52:19;;;;;;;12.60;10.70;;;14.90;99.90;;;;;;4993743;28;20217;-64
2023/05/08 05:54:46;;;;;;;12.73;11.40;;;14.90;99.90;;;;;;4981545;28;20256;-64
2023/05/08 05:57:13;;;;;;;12.70;11.17;;;15.10;99.90;;;;;;4982338;28;20226;-63
2023/05/08 05:59:40;;;;;;;13.00;11.57;;;15.20;99.90;;;;;;4987359;28;21219;-64
2023/05/08 06:02:09;;;;;;;13.33;11.93;;;15.30;99.90;;;;;;4974977;28;20690;-64
2023/05/08 06:04:36;;;;;;;13.17;11.23;;;15.40;99.90;;;;;;4992566;28;20546;-64
2023/05/08 06:07:03;;;;;;;15.00;13.50;;;15.40;99.90;;;;;;4995274;28;20280;-64
2023/05/08 06:09:29;;;;;;;15.07;13.00;;;15.20;99.90;;;;;;4994938;28;20311;-63
2023/05/08 06:11:56;;;;;;;16.33;14.20;;;15.30;99.90;;;;;;4981324;28;20309;-63
2023/05/08 06:14:23;;;;;;;14.93;13.33;;;15.40;99.90;;;;;;4985291;28;20210;-63
2023/05/08 06:16:50;;;;;;;16.93;14.20;;;15.60;99.90;;;;;;4996971;28;20257;-64
2023/05/08 06:19:17;;;;;;;17.20;14.97;;;15.50;99.90;;;;;;4998429;28;20220;-64
2023/05/08 06:21:44;;;;;;;17.53;14.67;;;15.60;99.90;;;;;;4993189;28;20634;-64
2023/05/08 06:24:11;;;;;;;21.40;17.70;;;15.60;99.90;;;;;;4996759;28;20235;-64
2023/05/08 06:26:38;;;;;;;20.90;16.93;;;15.60;99.90;;;;;;4997720;28;21253;-64
2023/05/08 06:29:05;;;;;;;21.47;16.90;;;15.70;99.90;;;;;;4994234;28;20207;-64
2023/05/08 06:31:31;;;;;;;24.57;18.23;;;15.80;99.90;;;;;;4997168;28;20621;-64
2023/05/08 06:33:58;;;;;;;23.77;19.93;;;15.90;99.90;;;;;;5013846;28;20223;-63
2023/05/08 06:36:26;;;;;;;27.53;21.57;;;15.90;99.90;;;;;;5000666;28;20204;-64
2023/05/08 06:38:53;;;;;;;34.60;26.43;;;16.00;99.90;;;;;;4998714;28;20249;-64
2023/05/08 06:41:20;;;;;;;31.73;25.03;;;16.00;99.90;;;;;;5006899;28;20671;-64
2023/05/08 06:43:47;;;;;;;31.90;24.20;;;16.10;99.90;;;;;;4994563;28;20310;-64
2023/05/08 06:46:14;;;;;;;31.33;24.80;;;16.10;99.90;;;;;;5000928;28;20668;-64
2023/05/08 06:48:41;;;;;;;33.60;25.60;;;16.20;99.90;;;;;;5009578;28;20200;-64
2023/05/08 06:51:08;;;;;;;32.53;25.10;;;16.20;99.90;;;;;;4996748;28;20669;-63
2023/05/08 06:53:35;;;;;;;32.40;25.97;;;16.10;99.90;;;;;;4993599;28;20239;-66
2023/05/08 06:56:02;;;;;;;36.07;26.17;;;16.20;99.90;;;;;;4984714;28;20237;-64
2023/05/08 06:58:30;;;;;;;36.67;28.90;;;16.10;99.90;;;;;;4996562;28;20711;-64
2023/05/08 07:01:00;;;;;;;33.73;25.87;;;16.00;99.90;;;;;;4994126;28;20765;-64
2023/05/08 07:03:27;;;;;;;29.13;23.53;;;16.00;99.90;;;;;;4994234;28;20306;-64
2023/05/08 07:05:55;;;;;;;25.50;20.33;;;16.00;99.90;;;;;;4998158;28;20216;-64
2023/05/08 07:08:22;;;;;;;20.83;18.47;;;15.80;99.90;;;;;;4992750;28;20720;-64
2023/05/08 07:10:48;;;;;;;24.23;19.97;;;15.90;99.90;;;;;;4998274;28;20204;-64
2023/05/08 07:13:20;;;;;;;24.23;19.50;;;15.90;99.90;;;;;;4994732;28;20205;-64
2023/05/08 07:15:47;;;;;;;25.73;20.73;;;16.00;99.90;;;;;;4996506;28;20256;-64
2023/05/08 07:18:14;;;;;;;23.07;19.53;;;16.00;99.90;;;;;;5003199;28;20267;-64
2023/05/08 07:20:41;;;;;;;24.97;19.93;;;16.00;99.90;;;;;;4998437;28;20254;-64
2023/05/08 07:23:08;;;;;;;26.63;19.83;;;16.00;99.90;;;;;;5011366;28;20211;-64
2023/05/08 07:25:35;;;;;;;23.93;19.87;;;16.00;99.90;;;;;;4997475;28;20238;-64
2023/05/08 07:28:02;;;;;;;25.50;19.37;;;15.90;99.90;;;;;;4997277;28;20278;-64
2023/05/08 07:30:29;;;;;;;26.00;19.37;;;16.10;99.90;;;;;;5000519;28;20199;-64
2023/05/08 07:32:56;;;;;;;21.70;18.93;;;16.10;99.90;;;;;;5008266;28;20307;-64
2023/05/08 07:35:23;;;;;;;24.20;20.57;;;16.10;99.90;;;;;;5009225;28;20218;-64
2023/05/08 07:37:50;;;;;;;23.10;19.93;;;16.00;99.90;;;;;;4999118;28;20257;-63
2023/05/08 07:40:17;;;;;;;23.67;19.77;;;16.30;99.90;;;;;;5002029;28;20244;-64
2023/05/08 07:42:44;;;;;;;21.87;19.00;;;16.20;99.90;;;;;;5007465;28;20643;-64
2023/05/08 07:45:12;;;;;;;25.47;19.80;;;16.10;99.90;;;;;;5008490;28;20338;-64
2023/05/08 07:47:54;;;;;;;25.53;19.60;;;16.00;99.90;;;;;;5010577;28;20719;-64
2023/05/08 07:50:22;;;;;;;23.50;19.43;;;16.30;99.90;;;;;;4999698;28;20294;-63
2023/05/08 07:52:50;;;;;;;25.83;20.10;;;16.30;99.90;;;;;;4996824;28;20573;-63
2023/05/08 07:55:17;;;;;;;25.27;20.73;;;16.40;99.90;;;;;;4997073;28;20199;-64
2023/05/08 07:57:45;;;;;;;22.67;20.23;;;16.50;99.90;;;;;;5012147;28;20249;-63
2023/05/08 08:00:13;;;;;;;25.03;19.77;;;16.70;99.90;;;;;;5002894;28;20295;-63
2023/05/08 08:02:41;;;;;;;26.10;20.20;;;16.70;99.90;;;;;;5001944;28;20207;-63
2023/05/08 08:05:09;;;;;;;26.37;20.73;;;16.70;99.90;;;;;;4993897;28;20697;-64
2023/05/08 08:07:36;;;;;;;22.33;19.93;;;16.70;99.90;;;;;;4992705;28;20342;-63
2023/05/08 08:10:03;;;;;;;25.67;20.93;;;16.70;99.90;;;;;;5002673;28;20200;-63
2023/05/08 08:12:30;;;;;;;24.80;21.70;;;17.10;99.90;;;;;;4997037;28;20210;-64
2023/05/08 08:14:57;;;;;;;23.20;19.80;;;17.10;99.90;;;;;;5000296;28;20238;-61
2023/05/08 08:17:24;;;;;;;25.43;20.97;;;17.00;99.90;;;;;;4989525;28;20299;-62
2023/05/08 08:19:54;;;;;;;27.17;21.33;;;17.00;99.90;;;;;;4979137;28;20672;-62
2023/05/08 08:22:22;;;;;;;24.50;21.03;;;17.10;99.90;;;;;;4989732;28;20204;-61
2023/05/08 08:24:48;;;;;;;28.47;22.33;;;17.10;99.90;;;;;;4999507;28;20294;-61
2023/05/08 08:27:18;;;;;;;29.60;23.43;;;17.20;99.90;;;;;;4994561;28;20255;-62
2023/05/08 08:29:44;;;;;;;29.50;23.57;;;17.20;99.90;;;;;;4996891;28;20212;-64
2023/05/08 08:32:11;;;;;;;28.33;22.83;;;17.20;99.90;;;;;;4993442;28;20231;-64
2023/05/08 08:34:38;;;;;;;34.83;26.03;;;17.50;99.90;;;;;;4992005;28;20227;-64
2023/05/08 08:37:05;;;;;;;36.30;26.03;;;17.50;99.90;;;;;;4992426;28;20271;-62
2023/05/08 08:39:33;;;;;;;33.13;24.90;;;17.50;99.90;;;;;;5012977;28;20260;-62
2023/05/08 08:42:00;;;;;;;30.37;26.13;;;17.30;99.90;;;;;;5001097;28;20322;-62
2023/05/08 08:44:28;;;;;;;30.80;24.30;;;17.50;99.90;;;;;;4999914;28;20213;-64
2023/05/08 08:46:59;;;;;;;30.17;24.33;;;17.50;99.90;;;;;;5000254;28;20586;-62
2023/05/08 08:49:33;;;;;;;34.80;25.70;;;17.60;99.90;;;;;;5001290;28;20561;-62
2023/05/08 08:52:10;;;;;;;33.03;26.13;;;17.60;99.90;;;;;;5001048;28;20199;-63
2023/05/08 08:54:40;;;;;;;33.10;24.93;;;17.50;99.90;;;;;;5001397;28;20207;-63
2023/05/08 08:57:08;;;;;;;34.03;26.13;;;17.70;99.90;;;;;;5014145;28;20226;-63
2023/05/08 08:59:38;;;;;;;36.53;27.83;;;17.50;99.90;;;;;;4998925;28;20244;-62
2023/05/08 09:02:10;;;;;;;36.80;26.37;;;17.50;99.90;;;;;;5001936;28;20287;-62
2023/05/08 09:04:37;;;;;;;34.70;25.83;;;17.60;99.90;;;;;;5014344;28;20202;-63
2023/05/08 09:07:06;;;;;;;31.83;25.23;;;17.70;99.90;;;;;;4998543;28;20271;-64
2023/05/08 09:09:34;;;;;;;29.70;23.90;;;17.80;99.90;;;;;;5001153;28;20749;-62
2023/05/08 09:12:01;;;;;;;34.80;24.17;;;18.00;99.90;;;;;;5015585;28;20198;-62
2023/05/08 09:14:28;;;;;;;30.63;23.67;;;18.40;99.90;;;;;;5000663;28;20652;-62
2023/05/08 09:16:55;;;;;;;27.93;22.43;;;18.50;99.90;;;;;;4997754;28;20312;-63
2023/05/08 09:19:22;;;;;;;29.33;22.77;;;18.40;99.90;;;;;;4997771;28;20209;-62
2023/05/08 09:21:57;;;;;;;30.53;23.27;;;18.40;99.90;;;;;;5001776;28;20242;-63
2023/05/08 09:24:24;;;;;;;27.23;22.37;;;18.40;99.90;;;;;;5000488;28;20299;-63
2023/05/08 09:26:50;;;;;;;28.93;23.87;;;18.60;99.90;;;;;;5000489;28;20284;-63
2023/05/08 09:29:20;;;;;;;31.67;22.00;;;18.80;99.90;;;;;;5002168;28;20197;-63
2023/05/08 09:31:51;;;;;;;28.67;22.80;;;18.80;99.90;;;;;;5002239;28;20209;-63
2023/05/08 09:34:23;;;;;;;28.90;22.53;;;18.50;99.90;;;;;;5001179;28;20263;-63
2023/05/08 09:36:50;;;;;;;34.23;23.83;;;18.40;99.90;;;;;;4628947;28;10000533;-60
2023/05/08 09:39:24;;;;;;;31.30;25.47;;;18.30;99.90;;;;;;4969328;28;20255;-60
2023/05/08 09:42:02;;;;;;;33.73;25.27;;;18.30;99.90;;;;;;4971207;28;20208;-60
2023/05/08 09:44:44;;;;;;;31.07;25.50;;;18.10;99.90;;;;;;4966390;28;20260;-59
2023/05/08 09:47:11;;;;;;;30.97;24.80;;;17.80;99.90;;;;;;4979766;28;20317;-59
2023/05/08 09:49:39;;;;;;;33.13;27.00;;;17.80;99.90;;;;;;4983114;28;20209;-61
2023/05/08 09:52:07;;;;;;;39.13;29.47;;;18.00;99.90;;;;;;4982320;28;20233;-60
2023/05/08 09:54:34;;;;;;;35.53;27.93;;;18.00;99.90;;;;;;4975077;28;20367;-59
2023/05/08 09:57:11;;;;;;;34.63;27.93;;;18.00;99.90;;;;;;4989881;28;21254;-60
2023/05/08 09:59:38;;;;;;;38.60;29.63;;;18.00;99.90;;;;;;5003517;28;21055;-62
2023/05/08 10:02:11;;;;;;;38.57;29.73;;;17.90;99.90;;;;;;4986353;28;20878;-61
2023/05/08 10:04:38;;;;;;;36.93;30.00;;;17.90;99.90;;;;;;4994565;28;20219;-62
2023/05/08 10:07:05;;;;;;;36.60;29.30;;;18.00;99.90;;;;;;4978945;28;20209;-61
2023/05/08 10:09:32;;;;;;;37.03;29.17;;;18.20;99.90;;;;;;4988640;28;20260;-61
2023/05/08 10:12:16;;;;;;;36.73;28.80;;;18.10;99.90;;;;;;4981869;28;20211;-61
2023/05/08 10:14:43;;;;;;;35.07;27.90;;;18.10;99.90;;;;;;4987516;28;20339;-61
2023/05/08 10:17:14;;;;;;;34.23;27.30;;;18.10;99.90;;;;;;4995915;28;20205;-62
2023/05/08 10:19:44;;;;;;;36.93;27.80;;;18.00;99.90;;;;;;5005854;28;20205;-61
2023/05/08 10:22:14;;;;;;;35.43;27.83;;;18.10;99.90;;;;;;4994185;28;20595;-61
2023/05/08 10:24:44;;;;;;;38.10;27.33;;;18.10;99.90;;;;;;4999466;28;20540;-61
2023/05/08 10:27:18;;;;;;;39.93;29.53;;;18.20;99.90;;;;;;5007146;28;20280;-62
2023/05/08 10:29:57;;;;;;;35.70;26.93;;;18.20;99.90;;;;;;4995170;28;20678;-61
2023/05/08 10:32:27;;;;;;;38.23;26.57;;;18.20;99.90;;;;;;5001032;28;20278;-61
2023/05/08 10:35:02;;;;;;;38.70;28.20;;;18.20;99.90;;;;;;4998318;28;20958;-62
2023/05/08 10:37:29;;;;;;;37.10;28.53;;;18.00;99.90;;;;;;4993932;28;20329;-61
2023/05/08 10:39:57;;;;;;;39.47;27.07;;;18.10;99.90;;;;;;4982922;28;20213;-61
2023/05/08 10:42:26;;;;;;;38.33;28.37;;;18.20;99.90;;;;;;4984176;28;20379;-62
2023/05/08 10:44:54;;;;;;;31.93;25.77;;;18.20;99.90;;;;;;5000593;28;20234;-61
2023/05/08 10:47:52;;;;;;;35.70;26.13;;;18.30;99.90;;;;;;4997735;28;20217;-62
2023/05/08 10:50:55;;;;;;;33.30;24.93;;;18.30;99.90;;;;;;4999322;28;20198;-62
2023/05/08 10:53:52;;;;;;;34.40;26.43;;;18.50;99.90;;;;;;4995704;28;20620;-62
2023/05/08 10:56:27;;;;;;;31.57;24.33;;;18.50;99.90;;;;;;4993457;28;20232;-61
2023/05/08 10:58:56;;;;;;;33.30;24.47;;;18.40;99.90;;;;;;4999518;28;20279;-61
2023/05/08 11:01:24;;;;;;;36.47;25.40;;;18.40;99.90;;;;;;4991390;28;20212;-61
2023/05/08 11:03:51;;;;;;;37.00;26.37;;;18.30;99.90;;;;;;4994331;28;20209;-61
2023/05/08 11:06:47;;;;;;;31.50;24.43;;;18.50;99.90;;;;;;4998953;28;20209;-61
2023/05/08 11:09:21;;;;;;;32.73;25.17;;;18.50;99.90;;;;;;4990211;28;20722;-63
2023/05/08 11:11:59;;;;;;;34.87;24.80;;;18.60;99.90;;;;;;4997540;28;20265;-61
2023/05/08 11:14:26;;;;;;;39.77;27.73;;;18.60;99.90;;;;;;4994803;28;21123;-61
2023/05/08 11:16:53;;;;;;;35.63;25.63;;;18.70;99.90;;;;;;5008564;28;20197;-62
2023/05/08 11:19:22;;;;;;;34.13;23.70;;;18.80;99.90;;;;;;4992974;28;20607;-62
2023/05/08 11:22:18;;;;;;;37.40;25.23;;;18.70;99.90;;;;;;4988817;28;21314;-62
2023/05/08 11:24:53;;;;;;;33.00;24.03;;;18.70;99.90;;;;;;4983541;28;20664;-62
2023/05/08 11:27:49;;;;;;;32.47;24.70;;;18.80;99.90;;;;;;5001928;28;20656;-62
2023/05/08 11:30:36;;;;;;;36.83;26.23;;;19.00;99.90;;;;;;5003556;28;20217;-61
2023/05/08 11:33:03;;;;;;;34.50;25.20;;;19.00;99.90;;;;;;4997531;28;20224;-62
2023/05/08 11:35:42;;;;;;;37.93;26.53;;;19.10;99.90;;;;;;4994049;28;20240;-62
2023/05/08 11:38:22;;;;;;;36.13;26.40;;;19.20;99.90;;;;;;4993940;28;20594;-61
2023/05/08 11:41:07;;;;;;;34.03;25.47;;;19.20;99.90;;;;;;4997315;28;20263;-62
2023/05/08 11:43:37;;;;;;;34.57;24.50;;;19.70;99.90;;;;;;4996362;28;20247;-62
2023/05/08 11:46:14;;;;;;;34.80;25.70;;;20.20;99.90;;;;;;4986721;28;23059;-62
2023/05/08 11:48:41;;;;;;;33.57;25.43;;;20.40;99.90;;;;;;4996189;28;20208;-62
2023/05/08 11:51:08;;;;;;;38.47;27.20;;;20.60;99.90;;;;;;4991199;28;20892;-62
2023/05/08 11:53:36;;;;;;;34.13;24.30;;;20.90;99.90;;;;;;4976184;28;20276;-61
2023/05/08 11:56:04;;;;;;;32.07;25.23;;;20.90;99.90;;;;;;4996469;28;20308;-62
2023/05/08 11:58:30;;;;;;;31.93;23.90;;;21.10;99.90;;;;;;4994011;28;20676;-62
2023/05/08 12:00:57;;;;;;;30.03;22.73;;;21.50;99.90;;;;;;4993596;28;20201;-62
2023/05/08 12:03:24;;;;;;;28.83;23.47;;;21.70;99.90;;;;;;5007899;28;20205;-64
2023/05/08 12:05:55;;;;;;;35.40;24.47;;;21.80;99.90;;;;;;4988750;28;20700;-64
2023/05/08 12:08:22;;;;;;;30.27;23.53;;;21.60;99.90;;;;;;4983574;28;20320;-61
2023/05/08 12:10:58;;;;;;;30.20;23.30;;;21.60;99.90;;;;;;4993777;28;20267;-61
2023/05/08 12:13:28;;;;;;;26.63;21.80;;;22.00;99.90;;;;;;4990705;28;20299;-61
2023/05/08 12:15:56;;;;;;;30.30;23.37;;;21.90;99.90;;;;;;5003124;28;20409;-64
2023/05/08 12:18:25;;;;;;;31.43;23.73;;;21.80;99.90;;;;;;4987453;28;20205;-61
2023/05/08 12:20:58;;;;;;;30.97;22.90;;;21.70;99.90;;;;;;4992977;28;20202;-61
2023/05/08 12:23:28;;;;;;;31.93;24.63;;;21.60;99.90;;;;;;4997046;28;20610;-61
2023/05/08 12:25:58;;;;;;;29.47;23.20;;;21.60;99.90;;;;;;4992337;28;20217;-61
2023/05/08 12:28:26;;;;;;;28.17;21.27;;;21.90;99.90;;;;;;4994452;28;20226;-61
2023/05/08 12:30:53;;;;;;;30.53;23.07;;;22.10;99.90;;;;;;4985052;28;20295;-61
2023/05/08 12:33:20;;;;;;;26.93;22.37;;;22.20;99.90;;;;;;5002577;28;20232;-61
2023/05/08 12:35:47;;;;;;;30.73;24.23;;;22.30;99.90;;;;;;4988567;28;20314;-61
2023/05/08 12:38:15;;;;;;;29.77;22.87;;;22.10;99.90;;;;;;4992928;28;20267;-61
2023/05/08 12:40:43;;;;;;;26.93;21.17;;;21.60;99.90;;;;;;4993453;28;20336;-61
2023/05/08 12:43:10;;;;;;;27.47;20.87;;;21.30;99.90;;;;;;4992294;28;20778;-61
2023/05/08 12:45:40;;;;;;;27.63;20.00;;;21.10;99.90;;;;;;4988501;28;20224;-61